createdAt,value
2023-05-19T00:00:13.142Z,10.90
2023-05-19T00:01:13.125Z,10.90
2023-05-19T00:02:13.006Z,10.80
2023-05-19T00:03:12.898Z,10.80
2023-05-19T00:04:13.146Z,10.90
2023-05-19T00:05:13.148Z,11.00
2023-05-19T00:06:13.067Z,11.00
2023-05-19T00:07:13.001Z,10.90
2023-05-19T00:08:17.914Z,10.80
2023-05-19T00:09:12.979Z,10.60
2023-05-19T00:10:12.993Z,10.70
2023-05-19T00:11:28.105Z,10.70
2023-05-19T00:12:13.076Z,10.60
2023-05-19T00:13:13.339Z,10.60
2023-05-19T00:14:13.288Z,10.60
2023-05-19T00:15:13.102Z,10.70
2023-05-19T00:16:12.998Z,10.80
2023-05-19T00:17:13.083Z,10.70
2023-05-19T00:18:13.262Z,10.70
2023-05-19T00:19:13.593Z,10.50
2023-05-19T00:20:13.506Z,10.50
2023-05-19T00:21:13.261Z,10.60
2023-05-19T00:22:13.188Z,10.60
2023-05-19T00:23:13.205Z,10.70
2023-05-19T00:24:13.214Z,10.60
2023-05-19T00:25:13.162Z,10.50
2023-05-19T00:26:13.018Z,10.40
2023-05-19T00:27:13.143Z,10.50
2023-05-19T00:28:13.098Z,10.60
2023-05-19T00:29:13.057Z,10.60
2023-05-19T00:30:12.966Z,10.60
2023-05-19T00:31:12.800Z,10.60
2023-05-19T00:32:13.844Z,10.50
2023-05-19T00:33:13.852Z,10.50
2023-05-19T00:34:13.683Z,10.40
2023-05-19T00:35:13.466Z,10.40
2023-05-19T00:36:13.215Z,10.30
2023-05-19T00:37:13.028Z,10.40
2023-05-19T00:38:12.958Z,10.30
2023-05-19T00:39:12.986Z,10.30
2023-05-19T00:40:13.120Z,10.50
2023-05-19T00:41:13.260Z,10.40
2023-05-19T00:42:13.339Z,10.40
2023-05-19T00:43:13.213Z,10.40
2023-05-19T00:44:13.037Z,10.40
2023-05-19T00:45:12.977Z,10.20
2023-05-19T00:46:12.799Z,10.20
2023-05-19T00:47:13.695Z,10.30
2023-05-19T00:48:13.551Z,10.30
2023-05-19T00:49:13.289Z,10.50
2023-05-19T00:50:13.153Z,10.60
2023-05-19T00:51:13.053Z,10.50
2023-05-19T00:52:12.845Z,10.10
2023-05-19T00:53:13.699Z,10.20
2023-05-19T00:54:13.415Z,10.20
2023-05-19T00:55:13.342Z,10.30
2023-05-19T00:56:13.386Z,10.30
2023-05-19T00:57:13.192Z,10.20
2023-05-19T00:58:13.116Z,10.10
2023-05-19T00:59:12.897Z,10.10
2023-05-19T01:00:12.729Z,10.10
2023-05-19T01:01:13.748Z,10.10
2023-05-19T01:02:13.835Z,10.10
2023-05-19T01:03:13.857Z,10.00
2023-05-19T01:04:13.060Z,10.30
2023-05-19T01:05:13.005Z,10.30
2023-05-19T01:06:13.099Z,10.00
2023-05-19T01:07:12.982Z,10.00
2023-05-19T01:08:12.718Z,9.90
2023-05-19T01:09:13.645Z,9.90
2023-05-19T01:10:13.523Z,9.90
2023-05-19T01:11:13.490Z,9.90
2023-05-19T01:12:13.272Z,10.10
2023-05-19T01:13:13.185Z,10.10
2023-05-19T01:14:13.242Z,10.00
2023-05-19T01:15:13.217Z,10.10
2023-05-19T01:16:13.139Z,10.00
2023-05-19T01:17:13.118Z,10.20
2023-05-19T01:18:13.441Z,10.30
2023-05-19T01:19:13.385Z,10.40
2023-05-19T01:20:13.407Z,10.10
2023-05-19T01:21:13.350Z,9.90
2023-05-19T01:22:13.546Z,9.90
2023-05-19T01:23:13.400Z,10.20
2023-05-19T01:24:13.250Z,10.10
2023-05-19T01:25:13.009Z,10.10
2023-05-19T01:26:12.991Z,10.10
2023-05-19T01:27:12.843Z,10.00
2023-05-19T01:28:13.680Z,9.90
2023-05-19T01:29:13.442Z,9.80
2023-05-19T01:30:13.578Z,9.90
2023-05-19T01:31:13.542Z,10.00
2023-05-19T01:32:13.513Z,10.00
2023-05-19T01:33:13.423Z,10.00
2023-05-19T01:34:13.225Z,9.80
2023-05-19T01:35:12.977Z,9.80
2023-05-19T01:36:12.889Z,9.80
2023-05-19T01:37:12.897Z,9.90
2023-05-19T01:38:13.054Z,9.60
2023-05-19T01:39:14.488Z,9.70
2023-05-19T01:40:13.433Z,9.80
2023-05-19T01:41:14.433Z,9.80
2023-05-19T01:42:13.317Z,9.70
2023-05-19T01:43:13.189Z,9.80
2023-05-19T01:44:13.089Z,10.00
2023-05-19T01:45:12.962Z,9.80
2023-05-19T01:46:12.798Z,9.80
2023-05-19T01:47:13.732Z,9.90
2023-05-19T01:48:13.434Z,9.80
2023-05-19T01:49:13.455Z,9.70
2023-05-19T01:50:13.362Z,9.60
2023-05-19T01:51:13.159Z,9.60
2023-05-19T01:52:13.135Z,9.70
2023-05-19T01:53:13.065Z,9.80
2023-05-19T01:54:12.855Z,9.70
2023-05-19T01:55:13.695Z,9.90
2023-05-19T01:56:13.621Z,9.70
2023-05-19T01:57:13.428Z,9.60
2023-05-19T01:58:13.175Z,9.60
2023-05-19T01:59:12.970Z,9.90
2023-05-19T02:00:12.865Z,9.80
2023-05-19T02:01:13.671Z,9.90
2023-05-19T02:02:13.667Z,9.90
2023-05-19T02:03:13.582Z,9.70
2023-05-19T02:04:13.476Z,9.90
2023-05-19T02:05:13.428Z,10.00
2023-05-19T02:06:13.403Z,9.80
2023-05-19T02:07:13.325Z,9.80
2023-05-19T02:08:13.058Z,9.70
2023-05-19T02:09:12.979Z,9.70
2023-05-19T02:10:12.850Z,9.50
2023-05-19T02:11:14.019Z,9.50
2023-05-19T02:12:12.896Z,9.50
2023-05-19T02:13:12.620Z,9.50
2023-05-19T02:14:13.754Z,9.60
2023-05-19T02:15:13.768Z,9.50
2023-05-19T02:16:13.694Z,9.40
2023-05-19T02:17:13.736Z,9.40
2023-05-19T02:18:13.849Z,9.50
2023-05-19T02:19:13.731Z,9.40
2023-05-19T02:20:13.535Z,9.30
2023-05-19T02:21:13.282Z,9.30
2023-05-19T02:22:13.320Z,9.30
2023-05-19T02:23:13.128Z,9.30
2023-05-19T02:24:12.961Z,9.30
2023-05-19T02:25:12.774Z,9.40
2023-05-19T02:26:13.536Z,9.30
2023-05-19T02:27:13.314Z,9.30
2023-05-19T02:28:13.185Z,9.30
2023-05-19T02:29:13.119Z,9.20
2023-05-19T02:30:13.637Z,9.20
2023-05-19T02:31:13.572Z,9.20
2023-05-19T02:32:13.610Z,9.30
2023-05-19T02:33:13.622Z,9.20
2023-05-19T02:34:13.618Z,9.30
2023-05-19T02:35:13.420Z,9.30
2023-05-19T02:36:13.766Z,9.30
2023-05-19T02:37:13.578Z,9.20
2023-05-19T02:38:13.667Z,9.40
2023-05-19T02:39:13.643Z,9.30
2023-05-19T02:40:13.562Z,9.30
2023-05-19T02:41:13.296Z,9.40
2023-05-19T02:42:13.341Z,9.30
2023-05-19T02:43:13.432Z,9.40
2023-05-19T02:44:13.292Z,9.40
2023-05-19T02:45:13.192Z,9.40
2023-05-19T02:46:13.063Z,9.40
2023-05-19T02:47:13.097Z,9.50
2023-05-19T02:48:17.938Z,9.50
2023-05-19T02:49:12.921Z,9.50
2023-05-19T02:50:12.775Z,9.30
2023-05-19T02:51:14.153Z,9.10
2023-05-19T02:52:13.335Z,9.20
2023-05-19T02:53:13.262Z,9.00
2023-05-19T02:54:13.246Z,9.00
2023-05-19T02:55:13.083Z,9.00
2023-05-19T02:56:13.022Z,9.20
2023-05-19T02:57:12.787Z,9.20
2023-05-19T02:58:13.650Z,9.30
2023-05-19T02:59:13.783Z,9.10
2023-05-19T03:00:13.658Z,9.00
2023-05-19T03:01:13.505Z,9.00
2023-05-19T03:02:13.472Z,9.10
2023-05-19T03:03:13.509Z,9.10
2023-05-19T03:04:13.465Z,9.20
2023-05-19T03:05:13.338Z,9.20
2023-05-19T03:06:13.102Z,9.00
2023-05-19T03:07:12.959Z,9.10
2023-05-19T03:08:12.713Z,9.10
2023-05-19T03:09:13.519Z,9.00
2023-05-19T03:10:13.352Z,9.00
2023-05-19T03:11:13.243Z,8.90
2023-05-19T03:12:13.098Z,8.80
2023-05-19T03:13:13.088Z,8.90
2023-05-19T03:14:13.105Z,8.80
2023-05-19T03:15:13.050Z,8.70
2023-05-19T03:16:13.178Z,8.70
2023-05-19T03:17:13.282Z,8.50
2023-05-19T03:18:13.214Z,8.60
2023-05-19T03:19:13.448Z,8.50
2023-05-19T03:20:13.472Z,8.30
2023-05-19T03:21:13.345Z,8.40
2023-05-19T03:22:13.163Z,8.30
2023-05-19T03:23:13.129Z,8.50
2023-05-19T03:24:13.573Z,8.60
2023-05-19T03:25:13.471Z,8.40
2023-05-19T03:26:13.325Z,8.40
2023-05-19T03:27:13.122Z,8.50
2023-05-19T03:28:13.353Z,8.50
2023-05-19T03:29:13.363Z,8.40
2023-05-19T03:30:14.446Z,8.50
2023-05-19T03:31:13.215Z,8.50
2023-05-19T03:32:13.276Z,8.40
2023-05-19T03:33:13.256Z,8.30
2023-05-19T03:35:13.489Z,8.50
2023-05-19T03:36:13.525Z,8.50
2023-05-19T03:37:13.374Z,8.40
2023-05-19T03:38:13.352Z,8.50
2023-05-19T03:39:13.511Z,8.40
2023-05-19T03:40:13.547Z,8.50
2023-05-19T03:41:13.435Z,8.60
2023-05-19T03:42:13.734Z,8.60
2023-05-19T03:43:13.724Z,8.50
2023-05-19T03:44:13.932Z,8.50
2023-05-19T03:45:17.848Z,8.50
2023-05-19T03:46:13.749Z,8.60
2023-05-19T03:47:13.772Z,8.60
2023-05-19T03:48:13.719Z,8.50
2023-05-19T03:49:13.665Z,8.60
2023-05-19T03:50:13.598Z,8.60
2023-05-19T03:51:13.586Z,8.80
2023-05-19T03:52:13.823Z,8.70
2023-05-19T03:53:13.666Z,8.80
2023-05-19T03:54:13.590Z,8.70
2023-05-19T03:55:13.692Z,8.80
2023-05-19T03:56:13.489Z,8.90
2023-05-19T03:57:13.455Z,8.90
2023-05-19T03:58:13.488Z,9.20
2023-05-19T03:59:13.446Z,9.30
2023-05-19T04:00:13.313Z,9.30
2023-05-19T04:01:13.321Z,9.30
2023-05-19T04:02:13.150Z,9.20
2023-05-19T04:03:13.018Z,9.00
2023-05-19T04:04:13.098Z,9.00
2023-05-19T04:05:13.108Z,9.00
2023-05-19T04:06:12.895Z,9.20
2023-05-19T04:07:12.779Z,9.10
2023-05-19T04:08:13.702Z,9.10
2023-05-19T04:09:13.671Z,8.90
2023-05-19T04:10:13.574Z,9.10
2023-05-19T04:11:13.353Z,9.30
2023-05-19T04:12:13.250Z,9.30
2023-05-19T04:13:13.497Z,9.30
2023-05-19T04:14:13.645Z,9.30
2023-05-19T04:15:13.421Z,9.30
2023-05-19T04:16:13.497Z,9.30
2023-05-19T04:17:13.455Z,9.30
2023-05-19T04:18:13.385Z,9.20
2023-05-19T04:19:13.156Z,9.20
2023-05-19T04:20:13.113Z,9.10
2023-05-19T04:21:13.715Z,9.10
2023-05-19T04:22:13.753Z,9.00
2023-05-19T04:23:13.606Z,9.00
2023-05-19T04:24:13.484Z,9.00
2023-05-19T04:25:13.390Z,9.00
2023-05-19T04:26:13.106Z,9.00
2023-05-19T04:27:13.093Z,8.90
2023-05-19T04:28:13.265Z,8.90
2023-05-19T04:29:13.042Z,9.00
2023-05-19T04:30:48.746Z,9.00
2023-05-19T04:31:00.963Z,9.00
2023-05-19T04:31:13.317Z,9.00
2023-05-19T04:32:18.241Z,9.00
2023-05-19T04:33:13.442Z,9.10
2023-05-19T04:34:13.404Z,9.00
2023-05-19T04:35:13.274Z,9.10
2023-05-19T04:36:13.343Z,9.00
2023-05-19T04:37:13.614Z,8.90
2023-05-19T04:38:13.527Z,8.90
2023-05-19T04:39:13.478Z,8.90
2023-05-19T04:40:13.655Z,8.80
2023-05-19T04:41:13.596Z,8.90
2023-05-19T04:42:13.681Z,9.00
2023-05-19T04:43:14.889Z,9.00
2023-05-19T04:44:12.720Z,9.20
2023-05-19T04:45:13.896Z,9.20
2023-05-19T04:46:13.858Z,9.40
2023-05-19T04:47:14.048Z,8.90
2023-05-19T04:48:13.021Z,9.00
2023-05-19T04:49:12.889Z,9.20
2023-05-19T04:50:12.928Z,9.30
2023-05-19T04:51:12.744Z,9.20
2023-05-19T04:52:13.931Z,9.20
2023-05-19T04:53:13.090Z,9.10
2023-05-19T04:54:13.070Z,9.30
2023-05-19T04:55:13.368Z,9.00
2023-05-19T04:56:13.420Z,9.20
2023-05-19T04:57:13.335Z,9.20
2023-05-19T04:58:13.504Z,9.30
2023-05-19T04:59:13.574Z,9.40
2023-05-19T05:00:13.417Z,9.20
2023-05-19T05:01:13.321Z,9.30
2023-05-19T05:02:13.155Z,9.30
2023-05-19T05:03:13.494Z,9.30
2023-05-19T05:04:13.572Z,9.30
2023-05-19T05:05:13.729Z,9.60
2023-05-19T05:06:13.820Z,9.40
2023-05-19T05:07:13.884Z,9.40
2023-05-19T05:08:13.080Z,9.40
2023-05-19T05:09:12.995Z,9.60
2023-05-19T05:10:13.177Z,9.60
2023-05-19T05:11:13.116Z,9.80
2023-05-19T05:12:12.979Z,9.60
2023-05-19T05:13:13.234Z,9.60
2023-05-19T05:14:13.203Z,9.60
2023-05-19T05:15:13.574Z,9.50
2023-05-19T05:16:13.764Z,9.60
2023-05-19T05:17:12.766Z,9.70
2023-05-19T05:18:13.684Z,9.80
2023-05-19T05:19:13.894Z,10.20
2023-05-19T05:20:13.149Z,10.00
2023-05-19T05:21:13.328Z,10.10
2023-05-19T05:22:13.288Z,10.20
2023-05-19T05:23:13.032Z,10.50
2023-05-19T05:24:13.089Z,10.40
2023-05-19T05:25:12.943Z,10.10
2023-05-19T05:26:12.793Z,9.70
2023-05-19T05:27:13.978Z,10.00
2023-05-19T05:28:12.863Z,10.00
2023-05-19T05:29:14.042Z,10.40
2023-05-19T05:30:12.982Z,10.30
2023-05-19T05:31:13.387Z,10.40
2023-05-19T05:32:13.306Z,10.40
2023-05-19T05:33:13.528Z,10.50
2023-05-19T05:34:13.536Z,10.50
2023-05-19T05:35:13.577Z,10.70
2023-05-19T05:36:13.829Z,10.70
2023-05-19T05:37:15.336Z,11.00
2023-05-19T05:38:13.246Z,10.90
2023-05-19T05:39:13.007Z,10.80
2023-05-19T05:40:12.981Z,10.80
2023-05-19T05:41:13.563Z,10.60
2023-05-19T05:42:13.609Z,10.80
2023-05-19T05:43:13.417Z,10.90
2023-05-19T05:44:13.362Z,11.00
2023-05-19T05:45:13.368Z,10.70
2023-05-19T05:46:13.577Z,10.60
2023-05-19T05:47:13.821Z,10.50
2023-05-19T05:48:13.859Z,11.00
2023-05-19T05:49:13.906Z,10.60
2023-05-19T05:50:12.984Z,10.90
2023-05-19T05:51:13.258Z,11.30
2023-05-19T05:52:13.193Z,11.30
2023-05-19T05:53:13.111Z,11.10
2023-05-19T05:54:12.924Z,10.80
2023-05-19T05:55:13.174Z,10.90
2023-05-19T05:56:12.951Z,11.10
2023-05-19T05:57:12.796Z,11.40
2023-05-19T05:58:13.782Z,11.60
2023-05-19T05:59:13.597Z,10.90
2023-05-19T06:00:13.533Z,11.10
2023-05-19T06:01:13.300Z,11.20
2023-05-19T06:02:13.446Z,11.50
2023-05-19T06:03:13.899Z,11.50
2023-05-19T06:04:12.964Z,11.70
2023-05-19T06:05:13.069Z,11.90
2023-05-19T06:06:12.916Z,12.00
2023-05-19T06:07:12.750Z,12.10
2023-05-19T06:08:13.923Z,12.00
2023-05-19T06:09:13.057Z,11.80
2023-05-19T06:10:13.168Z,11.80
2023-05-19T06:11:13.304Z,12.00
2023-05-19T06:12:14.356Z,12.40
2023-05-19T06:13:13.465Z,11.60
2023-05-19T06:14:13.378Z,11.40
2023-05-19T06:15:13.474Z,11.70
2023-05-19T06:16:13.425Z,11.40
2023-05-19T06:17:13.518Z,11.50
2023-05-19T06:18:13.505Z,11.50
2023-05-19T06:19:13.510Z,11.60
2023-05-19T06:20:13.349Z,11.70
2023-05-19T06:21:13.275Z,11.80
2023-05-19T06:22:13.464Z,12.00
2023-05-19T06:23:13.275Z,12.30
2023-05-19T06:24:13.184Z,12.40
2023-05-19T06:25:12.960Z,12.50
2023-05-19T06:26:13.044Z,12.50
2023-05-19T06:27:13.087Z,12.50
2023-05-19T06:28:12.979Z,12.60
2023-05-19T06:29:12.978Z,12.30
2023-05-19T06:30:12.843Z,12.50
2023-05-19T06:31:13.918Z,12.20
2023-05-19T06:32:12.831Z,12.50
2023-05-19T06:33:13.891Z,12.50
2023-05-19T06:34:12.991Z,12.10
2023-05-19T06:35:13.068Z,12.40
2023-05-19T06:36:12.972Z,12.70
2023-05-19T06:37:12.963Z,12.50
2023-05-19T06:38:13.026Z,12.10
2023-05-19T06:39:13.051Z,12.30
2023-05-19T06:40:13.065Z,12.20
2023-05-19T06:41:12.972Z,12.60
2023-05-19T06:42:12.756Z,13.00
2023-05-19T06:43:13.777Z,12.90
2023-05-19T06:44:13.920Z,12.50
2023-05-19T06:45:12.868Z,12.50
2023-05-19T06:46:13.934Z,12.70
2023-05-19T06:47:13.145Z,12.50
2023-05-19T06:48:13.004Z,12.50
2023-05-19T06:49:12.945Z,12.40
2023-05-19T06:50:12.929Z,12.60
2023-05-19T06:51:12.780Z,13.00
2023-05-19T06:52:13.640Z,13.00
2023-05-19T06:53:13.818Z,12.70
2023-05-19T06:54:13.852Z,12.70
2023-05-19T06:55:13.817Z,13.10
2023-05-19T06:56:13.813Z,13.20
2023-05-19T06:57:14.066Z,13.50
2023-05-19T06:58:14.139Z,13.50
2023-05-19T06:59:13.011Z,13.40
2023-05-19T07:00:15.889Z,13.70
2023-05-19T07:01:12.910Z,13.50
2023-05-19T07:02:12.988Z,13.10
2023-05-19T07:03:13.110Z,13.30
2023-05-19T07:04:13.375Z,13.40
2023-05-19T07:05:13.441Z,13.10
2023-05-19T07:06:13.347Z,13.20
2023-05-19T07:07:13.331Z,13.00
2023-05-19T07:08:13.187Z,13.00
2023-05-19T07:09:13.126Z,13.00
2023-05-19T07:10:13.763Z,13.00
2023-05-19T07:11:13.036Z,13.10
2023-05-19T07:12:13.113Z,13.30
2023-05-19T07:13:13.068Z,13.50
2023-05-19T07:14:13.060Z,13.80
2023-05-19T07:15:12.905Z,13.70
2023-05-19T07:16:12.680Z,13.70
2023-05-19T07:17:13.884Z,14.00
2023-05-19T07:18:13.131Z,13.90
2023-05-19T07:19:13.262Z,13.50
2023-05-19T07:20:13.470Z,14.20
2023-05-19T07:21:13.410Z,14.40
2023-05-19T07:22:13.600Z,14.50
2023-05-19T07:23:15.421Z,14.20
2023-05-19T07:24:13.677Z,14.20
2023-05-19T07:25:14.255Z,14.40
2023-05-19T07:26:13.098Z,14.20
2023-05-19T07:27:13.217Z,14.10
2023-05-19T07:28:13.088Z,14.10
2023-05-19T07:29:13.076Z,14.30
2023-05-19T07:30:13.209Z,14.50
2023-05-19T07:31:13.217Z,14.40
2023-05-19T07:32:13.136Z,14.00
2023-05-19T07:33:13.259Z,14.30
2023-05-19T07:34:13.291Z,14.10
2023-05-19T07:35:13.462Z,14.00
2023-05-19T07:36:13.548Z,13.80
2023-05-19T07:37:13.324Z,14.20
2023-05-19T07:38:13.303Z,14.20
2023-05-19T07:39:13.309Z,14.50
2023-05-19T07:40:13.438Z,15.00
2023-05-19T07:41:13.424Z,15.00
2023-05-19T07:42:13.466Z,15.20
2023-05-19T07:43:13.280Z,14.70
2023-05-19T07:44:13.216Z,14.90
2023-05-19T07:45:13.168Z,15.40
2023-05-19T07:46:13.288Z,15.80
2023-05-19T07:47:13.371Z,15.60
2023-05-19T07:48:13.309Z,15.10
2023-05-19T07:49:13.521Z,15.00
2023-05-19T07:50:13.637Z,15.00
2023-05-19T07:51:13.675Z,15.00
2023-05-19T07:52:13.724Z,15.10
2023-05-19T07:53:13.620Z,15.30
2023-05-19T07:54:13.432Z,15.50
2023-05-19T07:55:13.409Z,15.00
2023-05-19T07:56:13.349Z,14.90
2023-05-19T07:57:13.037Z,15.10
2023-05-19T07:58:13.174Z,14.90
2023-05-19T07:59:13.195Z,14.70
2023-05-19T08:00:13.745Z,15.20
2023-05-19T08:01:13.766Z,15.50
2023-05-19T08:02:13.874Z,15.90
2023-05-19T08:03:13.296Z,15.70
2023-05-19T08:04:13.684Z,15.40
2023-05-19T08:05:13.577Z,16.00
2023-05-19T08:06:13.679Z,15.80
2023-05-19T08:07:13.620Z,15.90
2023-05-19T08:08:13.698Z,15.50
2023-05-19T08:09:13.545Z,16.20
2023-05-19T08:10:38.456Z,16.20
2023-05-19T08:11:28.561Z,16.30
2023-05-19T08:12:13.732Z,16.20
2023-05-19T08:13:18.922Z,16.40
2023-05-19T08:14:13.159Z,16.40
2023-05-19T08:15:34.926Z,16.50
2023-05-19T08:16:13.235Z,16.60
2023-05-19T08:17:18.575Z,16.20
2023-05-19T08:18:13.753Z,16.20
2023-05-19T08:19:12.903Z,16.60
2023-05-19T08:20:13.084Z,16.10
2023-05-19T08:21:12.889Z,16.00
2023-05-19T08:22:13.122Z,15.90
2023-05-19T08:23:13.161Z,16.30
2023-05-19T08:24:13.229Z,16.60
2023-05-19T08:25:13.218Z,16.30
2023-05-19T08:26:12.933Z,16.80
2023-05-19T08:27:13.117Z,16.80
2023-05-19T08:28:13.153Z,16.70
2023-05-19T08:29:13.169Z,16.30
2023-05-19T08:30:13.317Z,16.60
2023-05-19T08:31:13.278Z,16.50
2023-05-19T08:32:13.667Z,16.10
2023-05-19T08:33:13.929Z,16.30
2023-05-19T08:34:13.109Z,16.10
2023-05-19T08:35:12.999Z,16.60
2023-05-19T08:36:12.895Z,16.70
2023-05-19T08:37:12.823Z,16.90
2023-05-19T08:38:13.786Z,17.00
2023-05-19T08:39:13.983Z,17.10
2023-05-19T08:40:13.190Z,17.10
2023-05-19T08:41:13.173Z,16.70
2023-05-19T08:42:13.268Z,16.80
2023-05-19T08:43:13.226Z,16.60
2023-05-19T08:44:13.379Z,16.50
2023-05-19T08:45:13.621Z,16.20
2023-05-19T08:46:13.908Z,15.90
2023-05-19T08:47:13.020Z,16.10
2023-05-19T08:48:13.595Z,16.20
2023-05-19T08:49:13.624Z,16.80
2023-05-19T08:50:13.557Z,17.00
2023-05-19T08:51:13.847Z,17.50
2023-05-19T08:52:13.755Z,17.20
2023-05-19T08:53:31.385Z,17.40
2023-05-19T08:54:13.346Z,17.50
2023-05-19T08:55:13.301Z,17.30
2023-05-19T08:56:13.303Z,16.90
2023-05-19T08:57:13.429Z,16.60
2023-05-19T08:58:13.301Z,16.70
2023-05-19T08:59:14.507Z,17.10
2023-05-19T09:00:13.547Z,17.30
2023-05-19T09:01:14.188Z,17.20
2023-05-19T09:02:13.350Z,17.20
2023-05-19T09:03:22.732Z,17.10
2023-05-19T09:04:13.336Z,17.60
2023-05-19T09:05:13.391Z,17.70
2023-05-19T09:06:13.414Z,17.30
2023-05-19T09:07:13.707Z,17.50
2023-05-19T09:08:13.777Z,17.20
2023-05-19T09:09:13.607Z,17.20
2023-05-19T09:10:14.058Z,16.80
2023-05-19T09:11:13.673Z,16.60
2023-05-19T09:12:14.051Z,16.70
2023-05-19T09:13:13.214Z,17.00
2023-05-19T09:14:13.170Z,17.20
2023-05-19T09:15:13.032Z,17.60
2023-05-19T09:16:13.174Z,17.90
2023-05-19T09:17:13.223Z,17.70
2023-05-19T09:18:13.536Z,17.40
2023-05-19T09:19:13.718Z,17.90
2023-05-19T09:20:13.568Z,16.90
2023-05-19T09:21:13.571Z,17.30
2023-05-19T09:22:18.555Z,17.60
2023-05-19T09:23:13.625Z,17.50
2023-05-19T09:24:13.586Z,17.30
2023-05-19T09:25:13.348Z,17.50
2023-05-19T09:26:13.262Z,18.00
2023-05-19T09:27:13.581Z,17.90
2023-05-19T09:28:13.573Z,18.80
2023-05-19T09:29:13.668Z,19.30
2023-05-19T09:30:13.693Z,19.80
2023-05-19T09:31:13.645Z,19.20
2023-05-19T09:32:13.846Z,19.00
2023-05-19T09:33:13.125Z,19.10
2023-05-19T09:34:13.373Z,18.50
2023-05-19T09:35:13.269Z,18.40
2023-05-19T09:36:13.076Z,18.80
2023-05-19T09:37:13.100Z,18.40
2023-05-19T09:38:13.104Z,18.60
2023-05-19T09:39:13.113Z,19.10
2023-05-19T09:40:13.154Z,18.60
2023-05-19T09:41:13.081Z,19.10
2023-05-19T09:42:13.101Z,18.70
2023-05-19T09:43:13.079Z,18.90
2023-05-19T09:44:13.063Z,18.40
2023-05-19T09:45:18.126Z,19.10
2023-05-19T09:46:14.653Z,20.00
2023-05-19T09:47:12.863Z,20.50
2023-05-19T09:48:14.078Z,19.90
2023-05-19T09:49:13.258Z,20.40
2023-05-19T09:50:13.525Z,19.70
2023-05-19T09:51:13.550Z,19.20
2023-05-19T09:52:13.413Z,19.70
2023-05-19T09:53:13.626Z,20.10
2023-05-19T09:54:13.620Z,21.10
2023-05-19T09:55:13.630Z,21.10
2023-05-19T09:56:13.519Z,20.50
2023-05-19T09:57:13.512Z,20.20
2023-05-19T09:58:13.799Z,21.00
2023-05-19T09:59:14.084Z,20.60
2023-05-19T10:00:13.127Z,20.70
2023-05-19T10:01:13.180Z,20.00
2023-05-19T10:02:13.090Z,20.20
2023-05-19T10:03:13.150Z,21.50
2023-05-19T10:04:13.157Z,21.70
2023-05-19T10:05:13.120Z,20.90
2023-05-19T10:06:13.157Z,21.50
2023-05-19T10:07:13.166Z,20.70
2023-05-19T10:08:13.125Z,21.70
2023-05-19T10:09:13.048Z,19.70
2023-05-19T10:10:13.018Z,20.30
2023-05-19T10:11:13.137Z,20.80
2023-05-19T10:12:13.399Z,20.00
2023-05-19T10:13:13.602Z,20.60
2023-05-19T10:14:13.867Z,21.40
2023-05-19T10:15:14.072Z,21.70
2023-05-19T10:16:13.259Z,20.30
2023-05-19T10:17:13.423Z,19.40
2023-05-19T10:18:13.453Z,19.90
2023-05-19T10:19:13.508Z,18.80
2023-05-19T10:20:13.473Z,18.80
2023-05-19T10:21:13.424Z,18.90
2023-05-19T10:22:13.353Z,20.40
2023-05-19T10:23:13.463Z,20.30
2023-05-19T10:24:13.479Z,20.70
2023-05-19T10:25:13.480Z,20.70
2023-05-19T10:26:13.594Z,20.20
2023-05-19T10:27:13.965Z,20.20
2023-05-19T10:28:13.163Z,20.80
2023-05-19T10:29:35.948Z,20.50
2023-05-19T10:32:13.755Z,20.40
2023-05-19T10:33:13.804Z,20.50
2023-05-19T10:34:12.819Z,21.30
2023-05-19T10:35:13.680Z,21.90
2023-05-19T10:36:13.727Z,22.60
2023-05-19T10:37:13.821Z,22.20
2023-05-19T10:38:13.699Z,22.70
2023-05-19T10:39:13.753Z,21.60
2023-05-19T10:40:14.313Z,20.60
2023-05-19T10:41:13.977Z,21.50
2023-05-19T10:42:13.513Z,22.00
2023-05-19T10:43:13.709Z,21.80
2023-05-19T10:44:13.919Z,22.70
2023-05-19T10:45:13.002Z,21.40
2023-05-19T10:46:13.014Z,21.90
2023-05-19T10:47:13.339Z,22.10
2023-05-19T10:48:13.940Z,23.00
2023-05-19T10:49:13.413Z,21.10
2023-05-19T10:50:13.735Z,20.20
2023-05-19T10:51:13.815Z,21.60
2023-05-19T10:52:14.451Z,20.90
2023-05-19T10:53:13.319Z,20.20
2023-05-19T10:54:14.448Z,21.10
2023-05-19T10:55:13.610Z,20.90
2023-05-19T10:56:13.741Z,22.80
2023-05-19T10:57:13.681Z,22.20
2023-05-19T10:58:13.753Z,20.60
2023-05-19T10:59:14.050Z,20.80
2023-05-19T11:00:13.200Z,21.00
2023-05-19T11:01:13.253Z,22.20
2023-05-19T11:02:13.250Z,21.90
2023-05-19T11:03:13.630Z,22.30
2023-05-19T11:04:14.222Z,22.10
2023-05-19T11:05:13.227Z,20.20
2023-05-19T11:06:13.170Z,21.50
2023-05-19T11:07:13.324Z,22.20
2023-05-19T11:08:13.198Z,20.80
2023-05-19T11:09:13.323Z,20.30
2023-05-19T11:10:13.335Z,21.80
2023-05-19T11:11:13.541Z,21.40
2023-05-19T11:12:13.358Z,22.10
2023-05-19T11:13:14.953Z,21.10
2023-05-19T11:14:13.032Z,20.40
2023-05-19T11:15:12.938Z,21.60
2023-05-19T11:16:13.360Z,21.10
2023-05-19T11:17:13.390Z,21.40
2023-05-19T11:18:13.536Z,22.40
2023-05-19T11:19:13.349Z,20.40
2023-05-19T11:20:13.272Z,20.80
2023-05-19T11:21:13.368Z,20.20
2023-05-19T11:22:13.270Z,19.00
2023-05-19T11:23:13.215Z,19.20
2023-05-19T11:24:13.206Z,19.00
2023-05-19T11:25:13.043Z,18.40
2023-05-19T11:26:12.834Z,19.20
2023-05-19T11:27:13.741Z,19.90
2023-05-19T11:28:13.619Z,20.30
2023-05-19T11:29:13.588Z,19.90
2023-05-19T11:30:13.349Z,21.60
2023-05-19T11:31:13.318Z,22.50
2023-05-19T11:32:13.618Z,23.30
2023-05-19T11:33:13.794Z,23.60
2023-05-19T11:34:13.857Z,24.30
2023-05-19T11:35:13.780Z,23.60
2023-05-19T11:36:13.632Z,21.90
2023-05-19T11:37:13.882Z,22.90
2023-05-19T11:38:16.923Z,22.60
2023-05-19T11:39:13.361Z,21.90
2023-05-19T11:40:13.360Z,21.30
2023-05-19T11:41:13.286Z,22.20
2023-05-19T11:42:13.317Z,22.70
2023-05-19T11:43:13.145Z,24.20
2023-05-19T11:44:13.290Z,24.60
2023-05-19T11:45:14.588Z,21.80
2023-05-19T11:46:13.565Z,21.60
2023-05-19T11:47:13.503Z,21.50
2023-05-19T11:48:13.435Z,21.10
2023-05-19T11:49:13.392Z,21.50
2023-05-19T11:50:13.317Z,21.10
2023-05-19T11:51:13.940Z,21.00
2023-05-19T11:52:12.939Z,20.90
2023-05-19T11:53:12.759Z,20.70
2023-05-19T11:54:13.622Z,20.50
2023-05-19T11:55:13.931Z,21.40
2023-05-19T11:56:12.791Z,22.30
2023-05-19T11:57:13.684Z,23.30
2023-05-19T11:58:13.470Z,22.30
2023-05-19T11:59:13.390Z,21.60
2023-05-19T12:00:13.296Z,21.00
2023-05-19T12:01:13.220Z,21.70
2023-05-19T12:02:13.264Z,23.50
2023-05-19T12:03:13.493Z,22.80
2023-05-19T12:04:13.498Z,21.90
2023-05-19T12:05:13.534Z,21.90
2023-05-19T12:06:13.555Z,21.80
2023-05-19T12:07:13.515Z,21.20
2023-05-19T12:08:13.682Z,22.40
2023-05-19T12:09:13.622Z,22.50
2023-05-19T12:10:13.537Z,22.70
2023-05-19T12:11:13.893Z,22.20
2023-05-19T12:12:13.007Z,21.60
2023-05-19T12:13:13.081Z,21.40
2023-05-19T12:14:13.311Z,21.60
2023-05-19T12:15:13.315Z,21.90
2023-05-19T12:16:13.319Z,22.00
2023-05-19T12:17:13.781Z,21.90
2023-05-19T12:18:13.057Z,22.70
2023-05-19T12:19:13.187Z,22.90
2023-05-19T12:20:13.382Z,23.80
2023-05-19T12:21:13.506Z,21.60
2023-05-19T12:22:13.319Z,21.00
2023-05-19T12:23:13.302Z,21.10
2023-05-19T12:24:13.349Z,22.00
2023-05-19T12:25:13.511Z,22.00
2023-05-19T12:26:13.547Z,23.00
2023-05-19T12:27:13.822Z,22.30
2023-05-19T12:28:13.775Z,22.00
2023-05-19T12:29:13.832Z,22.70
2023-05-19T12:30:13.873Z,22.40
2023-05-19T12:31:13.172Z,21.60
2023-05-19T12:32:13.021Z,21.50
2023-05-19T12:33:13.069Z,22.20
2023-05-19T12:34:13.015Z,22.50
2023-05-19T12:35:13.031Z,21.80
2023-05-19T12:36:13.252Z,20.80
2023-05-19T12:37:13.514Z,21.00
2023-05-19T12:38:13.569Z,20.90
2023-05-19T12:39:13.384Z,21.90
2023-05-19T12:40:13.565Z,23.50
2023-05-19T12:41:13.526Z,23.40
2023-05-19T12:42:13.414Z,23.60
2023-05-19T12:43:13.379Z,24.30
2023-05-19T12:44:13.318Z,24.50
2023-05-19T12:45:13.484Z,23.20
2023-05-19T12:46:13.740Z,22.10
2023-05-19T12:47:13.655Z,22.50
2023-05-19T12:48:13.866Z,23.30
2023-05-19T12:49:13.052Z,23.80
2023-05-19T12:50:12.933Z,23.00
2023-05-19T12:51:12.871Z,22.20
2023-05-19T12:52:13.819Z,23.60
2023-05-19T12:53:14.196Z,24.60
2023-05-19T12:54:13.464Z,24.10
2023-05-19T12:55:13.647Z,24.70
2023-05-19T12:56:13.636Z,24.00
2023-05-19T12:57:13.601Z,23.10
2023-05-19T12:58:13.539Z,23.30
2023-05-19T12:59:15.302Z,22.90
2023-05-19T13:00:13.184Z,23.10
2023-05-19T13:01:13.074Z,23.80
2023-05-19T13:02:13.107Z,21.90